Time;durP1;ratioP1;P1;durP2;ratioP2;P2;SDS_P1;SDS_P2;PMS_P1;PMS_P2;Temp;Humidity;BMP_temperature;BMP_pressure;BME280_temperature;BME280_humidity;BME280_pressure;Samples;Min_cycle;Max_cycle;Signal;HPM_P1;HPM_P2
2021/04/20 00:00:01;;;;;;;51.25;35.00;;;4.40;99.90;;;;;;4931117;29;20309;-66
2021/04/20 00:02:28;;;;;;;54.40;35.85;;;4.60;99.90;;;;;;4930863;29;20220;-66
2021/04/20 00:04:54;;;;;;;63.28;38.60;;;4.60;99.90;;;;;;4929421;29;20198;-66
2021/04/20 00:07:21;;;;;;;58.85;36.60;;;4.70;99.90;;;;;;4929598;29;20304;-67
2021/04/20 00:09:47;;;;;;;57.25;36.28;;;4.70;99.90;;;;;;4930634;29;20210;-66
2021/04/20 00:12:13;;;;;;;62.00;38.03;;;4.80;99.90;;;;;;4930033;29;20718;-66
2021/04/20 00:14:40;;;;;;;52.17;36.63;;;4.80;99.90;;;;;;4929483;29;20297;-66
2021/04/20 00:17:07;;;;;;;50.83;34.00;;;4.90;99.90;;;;;;4930806;29;20661;-66
2021/04/20 00:19:34;;;;;;;52.85;35.30;;;4.90;99.90;;;;;;4930386;29;20212;-66
2021/04/20 00:22:00;;;;;;;54.05;37.67;;;4.90;99.90;;;;;;4930580;29;20308;-66
2021/04/20 00:24:27;;;;;;;50.00;35.83;;;4.90;99.90;;;;;;4929985;29;20214;-66
2021/04/20 00:26:53;;;;;;;46.13;34.42;;;4.90;99.90;;;;;;4929013;29;20206;-67
2021/04/20 00:29:19;;;;;;;50.50;35.72;;;4.90;99.90;;;;;;4930200;29;20240;-67
2021/04/20 00:31:45;;;;;;;49.97;35.45;;;4.90;99.90;;;;;;4930288;29;20229;-66
2021/04/20 00:34:12;;;;;;;54.80;36.67;;;4.80;99.90;;;;;;4929491;29;20233;-67
2021/04/20 00:36:39;;;;;;;57.63;37.00;;;4.80;99.90;;;;;;4930182;29;20216;-66
2021/04/20 00:39:05;;;;;;;52.72;35.83;;;4.80;99.90;;;;;;4930401;29;20333;-66
2021/04/20 00:41:32;;;;;;;50.90;33.33;;;4.80;99.90;;;;;;4928684;29;20198;-66
2021/04/20 00:43:58;;;;;;;49.00;35.65;;;4.80;99.90;;;;;;4929956;29;20206;-66
2021/04/20 00:46:24;;;;;;;47.47;33.22;;;4.70;99.90;;;;;;4930233;29;20711;-66
2021/04/20 00:48:52;;;;;;;47.13;33.65;;;4.60;99.90;;;;;;4929827;29;20216;-66
2021/04/20 00:51:19;;;;;;;48.13;32.38;;;4.40;99.90;;;;;;4930167;29;20300;-66
2021/04/20 00:53:47;;;;;;;41.33;33.45;;;4.40;99.90;;;;;;4930113;29;20245;-66
2021/04/20 00:56:17;;;;;;;50.22;35.00;;;4.40;99.90;;;;;;4927936;29;20205;-66
2021/04/20 00:58:44;;;;;;;51.28;35.40;;;4.30;99.90;;;;;;4929634;29;20256;-67
2021/04/20 01:01:10;;;;;;;46.80;34.78;;;4.20;99.90;;;;;;4929911;29;20391;-66
2021/04/20 01:03:37;;;;;;;50.80;36.80;;;4.20;99.90;;;;;;4929990;29;20213;-67
2021/04/20 01:06:03;;;;;;;51.13;35.28;;;4.20;99.90;;;;;;4929197;29;20201;-67
2021/04/20 01:08:31;;;;;;;47.88;31.38;;;4.20;99.90;;;;;;4929373;29;20280;-67
2021/04/20 01:10:59;;;;;;;47.58;34.25;;;4.10;99.90;;;;;;4929303;29;20284;-66
2021/04/20 01:13:29;;;;;;;53.05;34.25;;;4.10;99.90;;;;;;4929851;29;20243;-66
2021/04/20 01:15:56;;;;;;;53.90;34.42;;;4.00;99.90;;;;;;4929239;29;20210;-67
2021/04/20 01:18:26;;;;;;;51.53;34.13;;;4.00;99.90;;;;;;4929325;29;20202;-67
2021/04/20 01:20:54;;;;;;;46.85;32.30;;;4.00;99.90;;;;;;4929403;29;20601;-66
2021/04/20 01:23:37;;;;;;;53.10;34.50;;;4.00;99.90;;;;;;4929339;29;20201;-66
2021/04/20 01:26:05;;;;;;;54.85;34.05;;;4.00;99.90;;;;;;4911016;29;20296;-66
2021/04/20 01:28:33;;;;;;;54.42;36.65;;;4.00;99.90;;;;;;4914476;29;20630;-66
2021/04/20 01:31:00;;;;;;;67.70;44.28;;;4.00;99.90;;;;;;4914651;29;20232;-66
2021/04/20 01:33:27;;;;;;;71.65;43.80;;;4.10;99.90;;;;;;4919148;29;20986;-66
2021/04/20 01:35:53;;;;;;;66.38;43.63;;;4.10;99.90;;;;;;4928858;29;20202;-66
2021/04/20 01:38:20;;;;;;;68.13;44.47;;;4.10;99.90;;;;;;4915585;29;20211;-67
2021/04/20 01:40:46;;;;;;;67.85;43.75;;;4.20;99.90;;;;;;4933163;29;20248;-67
2021/04/20 01:43:14;;;;;;;75.28;45.60;;;4.20;99.90;;;;;;4931936;29;20205;-66
2021/04/20 01:45:41;;;;;;;76.20;46.25;;;4.20;99.90;;;;;;4932805;29;20631;-66
2021/04/20 01:48:08;;;;;;;73.68;45.38;;;4.20;99.90;;;;;;4933278;29;20205;-66
2021/04/20 01:50:35;;;;;;;68.30;46.85;;;4.20;99.90;;;;;;4933041;29;20757;-66
2021/04/20 01:53:01;;;;;;;70.00;42.72;;;4.20;99.90;;;;;;4932923;29;20735;-66
2021/04/20 01:55:28;;;;;;;69.57;44.95;;;4.20;99.90;;;;;;4931914;29;20252;-67
2021/04/20 01:57:56;;;;;;;57.45;40.83;;;4.30;99.90;;;;;;4932432;29;20567;-66
2021/04/20 02:00:24;;;;;;;60.95;41.38;;;4.30;99.90;;;;;;4931968;29;20672;-66
2021/04/20 02:02:51;;;;;;;58.03;37.53;;;4.30;99.90;;;;;;4932415;29;20449;-66
2021/04/20 02:05:18;;;;;;;59.50;39.20;;;4.30;99.90;;;;;;4923592;29;20246;-66
2021/04/20 02:07:45;;;;;;;56.50;38.72;;;4.30;99.90;;;;;;4930792;29;20269;-66
2021/04/20 02:10:14;;;;;;;56.45;37.85;;;4.30;99.90;;;;;;4932763;29;20308;-66
2021/04/20 02:12:41;;;;;;;54.20;36.35;;;4.20;99.90;;;;;;4932584;29;20222;-66
2021/04/20 02:15:10;;;;;;;53.17;35.53;;;4.10;99.90;;;;;;4932586;29;20304;-66
2021/04/20 02:17:38;;;;;;;51.20;36.40;;;4.00;99.90;;;;;;4932682;29;20317;-66
2021/04/20 02:20:05;;;;;;;53.67;35.30;;;4.00;99.90;;;;;;4933052;29;20301;-65
2021/04/20 02:22:34;;;;;;;55.00;36.63;;;4.10;99.90;;;;;;4932139;29;20300;-66
2021/04/20 02:25:01;;;;;;;53.58;34.28;;;4.20;99.90;;;;;;4932023;29;20755;-66
2021/04/20 02:27:28;;;;;;;56.80;34.17;;;4.20;99.90;;;;;;4932184;29;20434;-66
2021/04/20 02:29:58;;;;;;;56.83;35.97;;;4.10;99.90;;;;;;4932707;29;20254;-66
2021/04/20 02:32:24;;;;;;;68.72;40.13;;;4.20;99.90;;;;;;4932600;29;20320;-66
2021/04/20 02:34:51;;;;;;;65.05;38.83;;;4.30;99.90;;;;;;4931803;29;20229;-67
2021/04/20 02:37:18;;;;;;;70.90;39.42;;;4.20;99.90;;;;;;4930879;29;20215;-66
2021/04/20 02:39:45;;;;;;;59.17;37.35;;;4.20;99.90;;;;;;4932886;29;20206;-66
2021/04/20 02:42:11;;;;;;;54.00;33.55;;;4.20;99.90;;;;;;4930661;29;20293;-66
2021/04/20 02:44:38;;;;;;;51.17;34.17;;;4.10;99.90;;;;;;4931220;29;20304;-66
2021/04/20 02:47:04;;;;;;;52.58;35.53;;;4.10;99.90;;;;;;4932456;29;20208;-66
2021/04/20 02:49:31;;;;;;;55.85;36.08;;;4.10;99.90;;;;;;4932326;29;20746;-66
2021/04/20 02:51:58;;;;;;;51.25;36.10;;;4.00;99.90;;;;;;4932315;29;20687;-66
2021/04/20 02:54:24;;;;;;;48.78;33.03;;;4.00;99.90;;;;;;4931185;29;20245;-67
2021/04/20 02:56:51;;;;;;;54.92;37.22;;;4.00;99.90;;;;;;4931202;29;20647;-67
2021/04/20 02:59:18;;;;;;;56.75;35.33;;;4.00;99.90;;;;;;4931137;29;20210;-66
2021/04/20 03:01:46;;;;;;;59.22;38.03;;;4.00;99.90;;;;;;4932087;29;20305;-66
2021/04/20 03:04:14;;;;;;;57.63;37.53;;;3.90;99.90;;;;;;4931337;29;21336;-66
2021/04/20 03:06:41;;;;;;;57.13;37.72;;;4.00;99.90;;;;;;4931622;29;20218;-66
2021/04/20 03:09:09;;;;;;;54.72;36.15;;;4.20;99.90;;;;;;4931359;29;20228;-66
2021/04/20 03:11:39;;;;;;;50.10;36.00;;;4.20;99.90;;;;;;4931956;29;20214;-66
2021/04/20 03:14:06;;;;;;;48.92;36.50;;;4.30;99.90;;;;;;4930774;29;20229;-66
2021/04/20 03:16:33;;;;;;;54.88;35.03;;;4.20;99.90;;;;;;4931311;29;20220;-66
2021/04/20 03:19:00;;;;;;;45.17;33.30;;;4.20;99.90;;;;;;4931392;29;20260;-66
2021/04/20 03:21:28;;;;;;;50.22;34.25;;;4.10;99.90;;;;;;4931060;29;20313;-66
2021/04/20 03:23:55;;;;;;;48.50;33.00;;;4.00;99.90;;;;;;4930461;29;20312;-70
2021/04/20 03:26:38;;;;;;;49.80;33.67;;;4.10;99.90;;;;;;4931268;29;20212;-66
2021/04/20 03:29:06;;;;;;;42.10;32.10;;;4.10;99.90;;;;;;4931011;29;20202;-66
2021/04/20 03:31:36;;;;;;;51.63;34.63;;;4.10;99.90;;;;;;4931579;29;20214;-66
2021/04/20 03:34:08;;;;;;;43.95;32.65;;;4.10;99.90;;;;;;4930727;29;20328;-66
2021/04/20 03:36:41;;;;;;;47.65;31.80;;;4.20;99.90;;;;;;4930879;29;20293;-66
2021/04/20 03:39:11;;;;;;;45.63;32.53;;;4.20;99.90;;;;;;4931483;29;20219;-66
2021/04/20 03:41:45;;;;;;;47.78;34.67;;;4.10;99.90;;;;;;4930382;29;20214;-67
2021/04/20 03:44:15;;;;;;;51.60;32.78;;;4.20;99.90;;;;;;4930203;29;20198;-66
2021/04/20 03:46:46;;;;;;;48.05;32.15;;;4.10;99.90;;;;;;4930623;29;20699;-66
2021/04/20 03:49:15;;;;;;;47.83;32.30;;;4.20;99.90;;;;;;4930562;29;20216;-66
2021/04/20 03:51:45;;;;;;;43.78;32.53;;;4.20;99.90;;;;;;4930817;29;20305;-65
2021/04/20 03:54:14;;;;;;;47.25;32.05;;;4.20;99.90;;;;;;4930669;29;20281;-66
2021/04/20 03:56:45;;;;;;;40.42;29.65;;;4.20;99.90;;;;;;4930936;29;20313;-66
2021/04/20 03:59:13;;;;;;;39.83;31.40;;;4.10;99.90;;;;;;4930224;29;20816;-67
2021/04/20 04:01:43;;;;;;;41.30;28.67;;;4.10;99.90;;;;;;4930347;29;20205;-66
2021/04/20 04:04:15;;;;;;;41.03;30.55;;;4.10;99.90;;;;;;4930605;29;20255;-66
2021/04/20 04:06:42;;;;;;;42.15;30.17;;;4.20;99.90;;;;;;4930536;29;20250;-67
2021/04/20 04:09:10;;;;;;;42.70;31.60;;;4.20;99.90;;;;;;4930703;29;20806;-66
2021/04/20 04:11:39;;;;;;;43.30;29.23;;;4.10;99.90;;;;;;4930532;29;20217;-66
2021/04/20 04:14:08;;;;;;;46.45;30.58;;;4.00;99.90;;;;;;4929790;29;20388;-66
2021/04/20 04:16:36;;;;;;;37.92;30.15;;;4.00;99.90;;;;;;4930143;29;20202;-66
2021/04/20 04:19:03;;;;;;;39.30;29.60;;;3.90;99.90;;;;;;4924791;29;20206;-66
2021/04/20 04:21:44;;;;;;;36.65;29.02;;;3.90;99.90;;;;;;4927208;29;20202;-66
2021/04/20 04:24:12;;;;;;;38.58;28.77;;;3.80;99.90;;;;;;4929724;29;21019;-66
2021/04/20 04:26:43;;;;;;;39.35;28.83;;;3.80;99.90;;;;;;4930326;29;20352;-66
2021/04/20 04:29:14;;;;;;;38.92;29.20;;;3.70;99.90;;;;;;4930130;29;20206;-66
2021/04/20 04:31:43;;;;;;;40.00;30.38;;;3.90;99.90;;;;;;4930655;29;20301;-67
2021/04/20 04:34:12;;;;;;;39.70;27.80;;;4.00;99.90;;;;;;4929197;29;20343;-66
2021/04/20 04:36:41;;;;;;;39.78;29.02;;;4.00;99.90;;;;;;4930030;29;20206;-66
2021/04/20 04:39:11;;;;;;;36.92;27.40;;;3.90;99.90;;;;;;4929995;29;20215;-66
2021/04/20 04:41:38;;;;;;;35.85;28.15;;;3.80;99.90;;;;;;4925854;29;20310;-66
2021/04/20 04:44:05;;;;;;;39.95;30.20;;;3.90;99.90;;;;;;4929394;29;20249;-66
2021/04/20 04:46:32;;;;;;;34.20;26.17;;;4.00;99.90;;;;;;4929627;29;20325;-66
2021/04/20 04:49:00;;;;;;;35.40;27.67;;;4.00;99.90;;;;;;4925603;29;20205;-66
2021/04/20 04:51:28;;;;;;;37.78;29.70;;;4.10;99.90;;;;;;4926199;29;20210;-66
2021/04/20 04:53:57;;;;;;;44.00;29.90;;;4.10;99.90;;;;;;4929597;29;20229;-68
2021/04/20 04:56:25;;;;;;;41.08;27.58;;;4.20;99.90;;;;;;4929396;29;20209;-66
2021/04/20 04:58:53;;;;;;;36.72;29.45;;;4.30;99.90;;;;;;4929584;29;20220;-66
2021/04/20 05:01:20;;;;;;;38.20;28.38;;;4.40;99.90;;;;;;4928558;29;20214;-66
2021/04/20 05:03:48;;;;;;;36.03;28.35;;;4.50;99.90;;;;;;4930003;29;20229;-66
2021/04/20 05:06:16;;;;;;;38.42;28.48;;;4.60;99.90;;;;;;4928020;29;20259;-67
2021/04/20 05:08:42;;;;;;;38.17;28.90;;;4.60;99.90;;;;;;4929822;29;20210;-67
2021/04/20 05:11:09;;;;;;;39.30;28.45;;;4.70;99.90;;;;;;4929937;29;20624;-66
2021/04/20 05:13:35;;;;;;;36.40;28.08;;;4.80;99.90;;;;;;4929641;29;20241;-67
2021/04/20 05:16:08;;;;;;;33.88;28.20;;;4.80;99.90;;;;;;4927119;29;20218;-66
2021/04/20 05:18:36;;;;;;;31.27;25.77;;;4.80;99.90;;;;;;4924762;29;20210;-66
2021/04/20 05:21:04;;;;;;;31.33;24.75;;;5.00;99.90;;;;;;4911511;29;20205;-66
2021/04/20 05:23:31;;;;;;;31.42;26.92;;;5.00;99.90;;;;;;4929677;29;20209;-66
2021/04/20 05:25:57;;;;;;;35.28;26.50;;;5.00;99.90;;;;;;4929262;29;20224;-66
2021/04/20 05:28:23;;;;;;;31.33;26.40;;;5.10;99.90;;;;;;4929674;29;20201;-67
2021/04/20 05:30:54;;;;;;;31.60;28.17;;;5.00;99.90;;;;;;4929141;29;20210;-67
2021/04/20 05:33:20;;;;;;;35.28;27.92;;;5.00;99.90;;;;;;4929056;29;20937;-66
2021/04/20 05:35:47;;;;;;;31.10;26.25;;;5.10;99.90;;;;;;4920797;29;20215;-66
2021/04/20 05:38:14;;;;;;;29.77;25.02;;;5.20;99.90;;;;;;4915900;29;20549;-66
2021/04/20 05:40:42;;;;;;;31.77;24.65;;;5.30;99.90;;;;;;4918553;29;20214;-66
2021/04/20 05:43:08;;;;;;;31.02;25.88;;;5.40;99.90;;;;;;4914109;29;20210;-66
2021/04/20 05:45:35;;;;;;;33.17;26.35;;;5.60;99.90;;;;;;4919250;29;20245;-66
2021/04/20 05:48:03;;;;;;;28.45;24.08;;;5.90;99.90;;;;;;4925593;29;20207;-67
2021/04/20 05:50:31;;;;;;;27.67;24.33;;;6.00;99.90;;;;;;4928260;29;20321;-66
2021/04/20 05:52:58;;;;;;;29.67;24.30;;;6.40;99.90;;;;;;4922068;29;20233;-66
2021/04/20 05:55:26;;;;;;;25.55;22.17;;;6.90;99.90;;;;;;4923633;29;20230;-67
2021/04/20 05:57:55;;;;;;;28.40;22.55;;;7.10;99.90;;;;;;4921039;29;20201;-67
2021/04/20 06:00:23;;;;;;;28.95;23.77;;;7.80;99.90;;;;;;4921305;29;20325;-67
2021/04/20 06:02:50;;;;;;;21.80;18.67;;;9.00;99.90;;;;;;4926657;29;20224;-64
2021/04/20 06:05:20;;;;;;;22.08;19.67;;;9.50;99.90;;;;;;4924672;29;20210;-64
2021/04/20 06:07:49;;;;;;;22.92;20.23;;;9.70;99.90;;;;;;4921129;29;20301;-63
2021/04/20 06:10:16;;;;;;;19.92;17.83;;;10.40;99.90;;;;;;4926955;29;20205;-63
2021/04/20 06:12:44;;;;;;;21.08;18.88;;;10.90;99.60;;;;;;4926475;29;20218;-64
2021/04/20 06:15:12;;;;;;;21.52;17.75;;;11.00;99.10;;;;;;4922042;29;20338;-67
2021/04/20 06:17:40;;;;;;;22.48;18.20;;;11.30;98.40;;;;;;4929541;29;20214;-66
2021/04/20 06:20:10;;;;;;;21.27;19.08;;;11.70;97.90;;;;;;4925888;29;20203;-67
2021/04/20 06:22:37;;;;;;;20.67;18.60;;;12.50;96.50;;;;;;4921163;29;20217;-67
2021/04/20 06:25:04;;;;;;;20.83;18.63;;;12.80;94.70;;;;;;4926694;29;20203;-66
2021/04/20 06:27:30;;;;;;;21.23;19.02;;;13.80;92.70;;;;;;4927823;29;20990;-66
2021/04/20 06:29:58;;;;;;;21.48;18.73;;;13.60;91.70;;;;;;4929982;29;20663;-67
2021/04/20 06:32:26;;;;;;;21.05;18.88;;;13.90;92.00;;;;;;4926096;29;20296;-66
2021/04/20 06:34:53;;;;;;;21.05;18.85;;;13.70;91.30;;;;;;4926654;29;20217;-66
2021/04/20 06:37:19;;;;;;;20.35;18.35;;;14.20;91.40;;;;;;4923401;29;20214;-66
2021/04/20 06:39:46;;;;;;;19.95;17.85;;;13.50;91.70;;;;;;4930260;29;20271;-67
2021/04/20 06:42:18;;;;;;;22.02;19.77;;;14.30;92.00;;;;;;4931200;29;20737;-66
2021/04/20 06:44:51;;;;;;;22.27;20.10;;;15.20;90.20;;;;;;4928636;29;20216;-66
2021/04/20 06:47:22;;;;;;;24.20;19.15;;;15.30;89.70;;;;;;4927643;29;20202;-66
2021/04/20 06:49:54;;;;;;;21.33;19.13;;;15.10;89.50;;;;;;4929028;29;20217;-66
2021/04/20 06:52:27;;;;;;;22.15;19.92;;;13.90;90.40;;;;;;4927192;29;20934;-67
2021/04/20 06:55:02;;;;;;;22.35;19.92;;;14.40;90.50;;;;;;4930295;29;20237;-66
2021/04/20 06:57:39;;;;;;;21.77;19.47;;;14.90;90.10;;;;;;4931183;29;20664;-67
2021/04/20 07:00:11;;;;;;;20.67;18.20;;;15.60;86.80;;;;;;4924716;29;21008;-66
2021/04/20 07:02:49;;;;;;;20.30;18.30;;;16.20;87.40;;;;;;4926342;29;20732;-66
2021/04/20 07:05:24;;;;;;;21.40;19.10;;;16.10;88.20;;;;;;4926149;29;20637;-67
2021/04/20 07:08:08;;;;;;;21.03;18.83;;;15.80;88.60;;;;;;4923636;29;20633;-67
2021/04/20 07:10:37;;;;;;;20.83;18.93;;;16.70;83.60;;;;;;4928054;29;20643;-66
2021/04/20 07:13:07;;;;;;;22.37;20.07;;;16.30;84.10;;;;;;4930585;29;20691;-66
2021/04/20 07:15:36;;;;;;;22.13;19.93;;;15.70;85.30;;;;;;4930096;29;21190;-66
2021/04/20 07:18:33;;;;;;;21.42;19.33;;;15.40;85.20;;;;;;4928308;29;20637;-67
2021/04/20 07:21:14;;;;;;;22.38;20.00;;;15.00;88.20;;;;;;4926808;29;20264;-66
2021/04/20 07:24:12;;;;;;;22.58;20.23;;;15.30;88.10;;;;;;4924961;29;20206;-66
2021/04/20 07:27:04;;;;;;;21.25;19.05;;;15.70;87.10;;;;;;4928307;29;20206;-66
2021/04/20 07:29:38;;;;;;;24.65;22.02;;;16.00;87.60;;;;;;4929780;29;20300;-67
2021/04/20 07:32:18;;;;;;;22.10;19.90;;;16.40;84.50;;;;;;4928400;29;20216;-66
2021/04/20 07:35:02;;;;;;;22.93;20.40;;;16.30;85.50;;;;;;4919154;29;20689;-66
2021/04/20 07:37:39;;;;;;;25.07;19.77;;;16.50;83.20;;;;;;4924939;29;20723;-66
2021/04/20 07:40:29;;;;;;;22.20;19.90;;;17.40;81.00;;;;;;4926270;29;20639;-66
2021/04/20 07:43:08;;;;;;;20.30;18.37;;;18.10;79.60;;;;;;4922120;29;21242;-67
2021/04/20 07:45:44;;;;;;;21.60;19.47;;;18.50;77.00;;;;;;4926549;29;20727;-67
2021/04/20 07:48:20;;;;;;;22.77;20.37;;;17.70;79.70;;;;;;4925084;29;20642;-66
2021/04/20 07:50:54;;;;;;;22.70;20.50;;;18.20;78.70;;;;;;4930036;29;21312;-71
2021/04/20 07:53:24;;;;;;;23.10;20.03;;;17.90;78.00;;;;;;4929321;29;20689;-70
2021/04/20 07:55:56;;;;;;;22.90;20.50;;;16.90;81.50;;;;;;4928420;29;20692;-70
2021/04/20 07:58:26;;;;;;;22.90;20.60;;;16.80;80.90;;;;;;4927512;29;20635;-71
2021/04/20 08:00:59;;;;;;;25.07;22.40;;;15.70;82.00;;;;;;4928832;29;20648;-70
2021/04/20 08:03:35;;;;;;;26.27;23.48;;;14.10;88.60;;;;;;4927688;29;20649;-71
2021/04/20 08:06:09;;;;;;;25.00;22.40;;;13.60;91.60;;;;;;4928938;29;20198;-71
2021/04/20 08:08:45;;;;;;;26.25;23.45;;;12.90;92.70;;;;;;4928430;29;20200;-69
2021/04/20 08:11:14;;;;;;;26.60;23.35;;;12.70;94.40;;;;;;4929414;29;20293;-70
2021/04/20 08:13:48;;;;;;;28.58;24.40;;;12.60;94.40;;;;;;4929755;29;20301;-69
2021/04/20 08:16:24;;;;;;;25.58;22.85;;;12.50;94.60;;;;;;4928126;29;20352;-69
2021/04/20 08:18:57;;;;;;;24.77;22.13;;;12.30;94.50;;;;;;4923762;29;20221;-70
2021/04/20 08:21:26;;;;;;;25.63;22.55;;;12.50;95.40;;;;;;4928000;29;20686;-70
2021/04/20 08:23:55;;;;;;;26.38;23.38;;;13.00;93.90;;;;;;4928716;29;20220;-69
2021/04/20 08:26:26;;;;;;;26.30;22.77;;;13.30;93.40;;;;;;4927265;29;20212;-69
2021/04/20 08:28:58;;;;;;;27.15;24.33;;;12.70;94.40;;;;;;4925517;29;20210;-70
2021/04/20 08:31:32;;;;;;;27.38;24.48;;;12.70;95.00;;;;;;4924406;29;20214;-69
2021/04/20 08:34:05;;;;;;;24.65;22.00;;;12.50;95.40;;;;;;4925171;29;20260;-69
2021/04/20 08:36:41;;;;;;;26.13;23.42;;;12.60;95.40;;;;;;4926851;29;20686;-69
2021/04/20 08:39:16;;;;;;;28.15;23.70;;;12.80;95.60;;;;;;4924151;29;20675;-69
2021/04/20 08:41:47;;;;;;;28.42;24.08;;;12.70;95.60;;;;;;4927223;29;20685;-70
2021/04/20 08:44:21;;;;;;;26.25;23.45;;;12.70;94.80;;;;;;4927934;29;20587;-69
2021/04/20 08:46:54;;;;;;;28.35;24.35;;;12.90;94.80;;;;;;4924573;29;20213;-69
2021/04/20 08:49:40;;;;;;;29.30;25.65;;;13.20;95.10;;;;;;4921432;29;20210;-70
2021/04/20 08:52:20;;;;;;;28.17;24.27;;;13.40;94.30;;;;;;4925121;29;20202;-69
2021/04/20 08:55:07;;;;;;;26.02;23.33;;;13.50;95.40;;;;;;4926401;29;20359;-69
2021/04/20 08:57:49;;;;;;;25.60;22.65;;;13.30;95.40;;;;;;4919346;29;20742;-69
2021/04/20 09:00:22;;;;;;;25.58;22.75;;;13.50;93.50;;;;;;4927647;29;21146;-70
2021/04/20 09:03:14;;;;;;;24.35;21.70;;;13.70;93.50;;;;;;4932153;29;20225;-69
2021/04/20 09:05:48;;;;;;;22.80;20.35;;;13.70;94.50;;;;;;4913388;29;20214;-69
2021/04/20 09:08:33;;;;;;;24.40;20.33;;;13.30;94.00;;;;;;4930005;29;20289;-69
2021/04/20 09:11:09;;;;;;;24.15;21.55;;;13.50;94.90;;;;;;4924597;29;20212;-69
2021/04/20 09:13:58;;;;;;;23.45;21.05;;;13.50;94.10;;;;;;4930287;29;20311;-69
2021/04/20 09:16:31;;;;;;;23.88;20.98;;;14.40;93.30;;;;;;4931721;29;20209;-69
2021/04/20 09:19:01;;;;;;;22.45;19.52;;;15.10;91.70;;;;;;4919748;29;20233;-70
2021/04/20 09:21:34;;;;;;;21.70;19.40;;;16.40;90.90;;;;;;4929830;29;20205;-70
2021/04/20 09:24:10;;;;;;;21.90;19.60;;;17.60;85.50;;;;;;4928383;29;20638;-69
2021/04/20 09:26:43;;;;;;;16.00;14.50;;;18.90;81.00;;;;;;4930654;29;20629;-70
2021/04/20 09:29:15;;;;;;;15.20;13.80;;;19.80;73.20;;;;;;4928340;29;20665;-70
2021/04/20 09:31:52;;;;;;;15.60;13.90;;;19.90;70.90;;;;;;4920297;29;21023;-70
2021/04/20 09:34:18;;;;;;;13.93;12.63;;;19.60;71.60;;;;;;4919723;29;20686;-71
2021/04/20 09:36:45;;;;;;;15.03;13.57;;;19.40;70.90;;;;;;4927201;29;20640;-70
2021/04/20 09:39:14;;;;;;;14.13;12.83;;;19.50;67.90;;;;;;4928089;29;20654;-70
2021/04/20 09:41:42;;;;;;;15.60;14.10;;;19.50;68.30;;;;;;4921764;29;20634;-70
2021/04/20 09:44:33;;;;;;;13.63;12.33;;;18.60;70.10;;;;;;4927812;29;21048;-70
2021/04/20 09:47:23;;;;;;;15.00;13.53;;;19.20;68.30;;;;;;4926115;29;20735;-70
2021/04/20 09:50:02;;;;;;;15.33;13.83;;;19.20;68.60;;;;;;4896676;29;21175;-70
2021/04/20 09:52:43;;;;;;;16.53;14.90;;;18.70;69.40;;;;;;4929052;29;20641;-70
2021/04/20 09:55:17;;;;;;;15.17;13.63;;;18.40;71.40;;;;;;4930697;29;20681;-69
2021/04/20 09:57:48;;;;;;;14.20;12.80;;;18.30;69.90;;;;;;4931539;29;20629;-70
2021/04/20 10:00:16;;;;;;;13.43;12.20;;;18.10;71.80;;;;;;4930742;29;20691;-69
2021/04/20 10:02:59;;;;;;;13.93;12.47;;;18.60;68.60;;;;;;4930326;29;21305;-67
2021/04/20 10:05:35;;;;;;;10.57;9.47;;;18.30;73.70;;;;;;4930925;29;20629;-67
2021/04/20 10:08:30;;;;;;;10.63;9.60;;;18.30;69.80;;;;;;4926093;29;20633;-67
2021/04/20 10:11:04;;;;;;;11.13;10.10;;;19.10;67.70;;;;;;4931999;29;20988;-67
2021/04/20 10:13:42;;;;;;;12.03;10.83;;;19.10;64.00;;;;;;4929072;29;20724;-66
2021/04/20 10:16:17;;;;;;;12.40;11.20;;;18.70;66.30;;;;;;4928353;29;20645;-67
2021/04/20 10:18:50;;;;;;;12.00;10.70;;;18.40;67.20;;;;;;4931328;29;20625;-67
2021/04/20 10:21:24;;;;;;;12.97;11.70;;;18.40;70.70;;;;;;4927855;29;20640;-66
2021/04/20 10:24:02;;;;;;;13.80;12.60;;;18.00;71.90;;;;;;4930645;29;20682;-66
2021/04/20 10:26:36;;;;;;;12.10;10.90;;;18.20;74.90;;;;;;4930824;29;20663;-67
2021/04/20 10:29:10;;;;;;;13.43;12.03;;;18.10;70.70;;;;;;4930853;29;20740;-67
2021/04/20 10:31:45;;;;;;;12.10;10.90;;;18.60;71.80;;;;;;4927763;29;20716;-67
2021/04/20 10:34:17;;;;;;;12.03;10.73;;;18.50;70.60;;;;;;4927703;29;20696;-67
2021/04/20 10:36:49;;;;;;;10.37;9.37;;;18.40;71.80;;;;;;4930995;29;20724;-67
2021/04/20 10:39:17;;;;;;;10.50;9.50;;;18.00;70.90;;;;;;4930570;29;21057;-67
2021/04/20 10:41:46;;;;;;;9.57;8.60;;;17.40;71.50;;;;;;4931381;29;20637;-67
2021/04/20 10:44:14;;;;;;;11.30;10.10;;;17.30;71.40;;;;;;4922151;29;21456;-66
2021/04/20 10:46:43;;;;;;;11.00;9.70;;;16.90;68.70;;;;;;4931185;29;20270;-67
2021/04/20 10:49:15;;;;;;;11.80;10.65;;;16.50;67.80;;;;;;4931540;29;20241;-67
2021/04/20 10:51:42;;;;;;;12.10;10.90;;;16.50;69.80;;;;;;4930395;29;20208;-66
2021/04/20 10:54:10;;;;;;;11.90;10.68;;;16.50;69.60;;;;;;4929245;29;20255;-66
2021/04/20 10:56:38;;;;;;;12.02;10.45;;;16.50;69.50;;;;;;4926640;29;20216;-66
2021/04/20 10:59:08;;;;;;;12.82;11.52;;;16.40;71.30;;;;;;4926995;29;20249;-66
2021/04/20 11:01:36;;;;;;;12.23;11.02;;;16.30;70.30;;;;;;4929701;29;20239;-66
2021/04/20 11:04:05;;;;;;;14.30;13.00;;;16.30;71.70;;;;;;4930490;29;20210;-66
2021/04/20 11:07:10;;;;;;;13.00;11.70;;;16.30;78.60;;;;;;4930258;29;20217;-66
2021/04/20 11:09:36;;;;;;;15.57;13.98;;;16.40;75.20;;;;;;4928024;29;20202;-66
2021/04/20 11:12:13;;;;;;;15.25;13.65;;;16.50;77.30;;;;;;4930192;29;20217;-67
2021/04/20 11:14:42;;;;;;;19.70;16.13;;;17.00;79.00;;;;;;4924401;29;20229;-67
2021/04/20 11:17:22;;;;;;;18.30;16.38;;;16.70;78.20;;;;;;4930393;29;20214;-66
2021/04/20 11:19:53;;;;;;;14.93;13.35;;;16.10;80.40;;;;;;4930450;29;20241;-67
2021/04/20 11:22:20;;;;;;;14.77;13.27;;;15.80;79.20;;;;;;4928111;29;20886;-66
2021/04/20 11:24:55;;;;;;;17.13;14.77;;;15.90;77.80;;;;;;4928935;29;20317;-66
2021/04/20 11:27:27;;;;;;;15.10;13.55;;;15.80;80.60;;;;;;4929810;29;20201;-66
2021/04/20 11:30:02;;;;;;;16.35;14.65;;;15.80;80.60;;;;;;4928989;29;20874;-67
2021/04/20 11:32:32;;;;;;;15.68;13.88;;;15.50;77.90;;;;;;4929283;29;20510;-66
2021/04/20 11:35:06;;;;;;;14.48;13.05;;;15.20;78.20;;;;;;4928437;29;20904;-68
2021/04/20 11:37:35;;;;;;;14.85;13.32;;;15.10;80.20;;;;;;4926533;29;20216;-68
2021/04/20 11:40:05;;;;;;;15.95;14.35;;;15.10;81.20;;;;;;4928802;29;20220;-68
2021/04/20 11:42:39;;;;;;;15.75;13.35;;;15.40;77.10;;;;;;4929512;29;20648;-68
2021/04/20 11:45:15;;;;;;;13.02;11.73;;;15.60;77.30;;;;;;4925077;29;20237;-68
2021/04/20 11:47:57;;;;;;;14.32;12.88;;;16.30;75.00;;;;;;4926779;29;20249;-69
2021/04/20 11:50:26;;;;;;;14.55;13.05;;;16.80;79.40;;;;;;4921314;29;20214;-68
2021/04/20 11:53:00;;;;;;;12.50;11.20;;;17.00;76.50;;;;;;4927820;29;20316;-69
2021/04/20 11:55:34;;;;;;;13.88;12.38;;;17.30;73.00;;;;;;4925613;29;20259;-69
2021/04/20 11:58:11;;;;;;;12.13;10.93;;;17.50;76.90;;;;;;4927018;29;20233;-69
2021/04/20 12:00:41;;;;;;;12.63;11.48;;;17.60;75.20;;;;;;4929770;29;20264;-69
2021/04/20 12:03:14;;;;;;;12.15;10.82;;;17.60;73.80;;;;;;4929936;29;20212;-69
2021/04/20 12:05:42;;;;;;;15.23;12.05;;;17.60;75.50;;;;;;4928714;29;20206;-69
2021/04/20 12:08:12;;;;;;;12.35;11.05;;;17.70;73.30;;;;;;4927654;29;20265;-68
2021/04/20 12:10:41;;;;;;;11.65;10.55;;;17.50;72.50;;;;;;4928280;29;20205;-69
2021/04/20 12:13:09;;;;;;;11.20;10.10;;;17.30;74.10;;;;;;4929557;29;20206;-69
2021/04/20 12:15:35;;;;;;;11.57;10.50;;;17.10;73.60;;;;;;4928262;29;20205;-69
2021/04/20 12:18:07;;;;;;;11.85;10.75;;;16.90;72.90;;;;;;4929297;29;20600;-67
2021/04/20 12:20:34;;;;;;;14.75;11.80;;;16.70;74.80;;;;;;4928640;29;20268;-67
2021/04/20 12:23:01;;;;;;;12.05;10.95;;;16.70;75.90;;;;;;4929751;29;20710;-67
2021/04/20 12:25:29;;;;;;;11.45;10.35;;;17.30;75.30;;;;;;4928544;29;20212;-66
2021/04/20 12:27:59;;;;;;;14.23;11.68;;;17.20;72.80;;;;;;4929691;29;20202;-67
2021/04/20 12:30:27;;;;;;;13.07;11.75;;;17.10;75.80;;;;;;4928709;29;20213;-67
2021/04/20 12:32:53;;;;;;;13.00;11.70;;;17.10;72.40;;;;;;4928570;29;20214;-67
2021/04/20 12:35:27;;;;;;;13.10;11.73;;;17.00;71.10;;;;;;4928456;29;20225;-67
2021/04/20 12:37:57;;;;;;;12.43;11.23;;;17.10;71.90;;;;;;4924606;29;20261;-67
2021/04/20 12:40:30;;;;;;;11.73;10.63;;;16.90;70.50;;;;;;4929459;29;20202;-67
2021/04/20 12:43:02;;;;;;;11.65;10.57;;;16.90;70.50;;;;;;4920889;29;20222;-67
2021/04/20 12:45:32;;;;;;;11.45;10.23;;;17.20;69.10;;;;;;4923513;29;20209;-68
2021/04/20 12:47:59;;;;;;;11.50;10.40;;;17.20;72.30;;;;;;4926122;29;20256;-66
2021/04/20 12:50:30;;;;;;;10.80;9.80;;;17.30;70.80;;;;;;4928242;29;20289;-67